createdAt,value
2022-12-27T00:02:05.371Z,83.50
2022-12-27T00:04:37.226Z,83.48
2022-12-27T00:07:09.206Z,83.45
2022-12-27T00:09:40.866Z,83.47
2022-12-27T00:12:12.563Z,83.58
2022-12-27T00:14:44.345Z,83.41
2022-12-27T00:17:15.989Z,83.37
2022-12-27T00:19:47.617Z,83.31
2022-12-27T00:22:19.230Z,83.29
2022-12-27T00:24:50.956Z,83.23
2022-12-27T00:27:22.585Z,83.23
2022-12-27T00:29:54.247Z,83.18
2022-12-27T00:32:25.871Z,83.12
2022-12-27T00:34:57.498Z,82.91
2022-12-27T00:37:29.388Z,82.96
2022-12-27T00:40:01.021Z,82.78
2022-12-27T00:42:32.721Z,82.84
2022-12-27T00:45:05.743Z,82.67
2022-12-27T00:47:37.340Z,82.56
2022-12-27T00:50:10.223Z,82.48
2022-12-27T00:52:41.794Z,82.42
2022-12-27T00:55:13.540Z,82.40
2022-12-27T00:57:45.158Z,82.25
2022-12-27T01:00:18.529Z,82.33
2022-12-27T01:02:50.285Z,82.38
2022-12-27T01:05:24.083Z,82.32
2022-12-27T01:07:56.059Z,82.32
2022-12-27T01:10:27.718Z,82.34
2022-12-27T01:13:01.199Z,82.21
2022-12-27T01:15:32.960Z,82.15
2022-12-27T01:18:04.676Z,82.03
2022-12-27T01:20:38.310Z,82.09
2022-12-27T01:23:09.896Z,81.98
2022-12-27T01:25:41.541Z,82.03
2022-12-27T01:28:13.155Z,81.94
2022-12-27T01:30:44.988Z,82.18
2022-12-27T01:33:16.601Z,82.30
2022-12-27T01:35:48.256Z,82.37
2022-12-27T01:38:19.903Z,82.43
2022-12-27T01:40:51.478Z,82.46
2022-12-27T01:43:36.641Z,82.54
2022-12-27T01:46:08.398Z,82.59
2022-12-27T01:48:40.496Z,82.53
2022-12-27T01:51:13.267Z,82.64
2022-12-27T01:53:49.278Z,82.64
2022-12-27T01:56:28.749Z,82.56
2022-12-27T01:59:04.113Z,82.52
2022-12-27T02:01:41.026Z,82.45
2022-12-27T02:04:16.309Z,82.39
2022-12-27T02:06:49.203Z,82.28
2022-12-27T02:09:27.536Z,82.22
2022-12-27T02:12:01.980Z,82.30
2022-12-27T02:14:35.851Z,82.25
2022-12-27T02:17:11.373Z,82.39
2022-12-27T02:19:51.833Z,82.28
2022-12-27T02:23:12.377Z,82.32
2022-12-27T02:26:15.636Z,82.40
2022-12-27T02:29:06.679Z,82.54
2022-12-27T02:31:43.511Z,82.57
2022-12-27T02:34:19.983Z,82.53
2022-12-27T02:36:54.355Z,82.57
2022-12-27T02:39:27.945Z,82.60
2022-12-27T02:42:18.289Z,82.50
2022-12-27T02:45:12.708Z,82.41
2022-12-27T02:48:04.338Z,82.55
2022-12-27T02:51:19.959Z,82.46
2022-12-27T02:54:05.789Z,82.59
2022-12-27T02:57:05.652Z,82.65
2022-12-27T03:00:13.714Z,82.72
2022-12-27T03:03:18.893Z,82.54
2022-12-27T03:06:27.269Z,82.59
2022-12-27T03:09:09.911Z,82.61
2022-12-27T03:12:08.699Z,82.81
2022-12-27T03:15:05.435Z,82.73
2022-12-27T03:17:44.708Z,82.83
2022-12-27T03:20:37.548Z,82.82
2022-12-27T03:23:29.043Z,82.87
2022-12-27T03:26:02.843Z,82.69
2022-12-27T03:28:50.834Z,82.70
2022-12-27T03:31:43.829Z,82.68
2022-12-27T03:34:33.289Z,82.51
2022-12-27T03:37:27.664Z,82.34
2022-12-27T03:40:03.081Z,82.40
2022-12-27T03:43:00.697Z,82.28
2022-12-27T03:45:57.996Z,82.30
2022-12-27T03:48:34.883Z,82.18
2022-12-27T03:51:08.194Z,82.06
2022-12-27T03:53:43.236Z,81.93
2022-12-27T03:56:15.113Z,81.79
2022-12-27T03:58:47.051Z,81.61
2022-12-27T04:01:18.829Z,81.55
2022-12-27T04:03:50.633Z,81.49
2022-12-27T04:06:22.203Z,81.56
2022-12-27T04:09:11.784Z,81.66
2022-12-27T04:12:00.788Z,81.39
2022-12-27T04:14:50.316Z,81.39
2022-12-27T04:17:39.210Z,81.49
2022-12-27T04:20:29.564Z,81.28
2022-12-27T04:23:19.286Z,81.30
2022-12-27T04:26:08.884Z,81.35
2022-12-27T04:28:59.414Z,81.35
2022-12-27T04:31:49.116Z,81.20
2022-12-27T04:34:38.664Z,81.32
2022-12-27T04:37:11.664Z,81.20
2022-12-27T04:40:03.313Z,81.14
2022-12-27T04:42:52.504Z,81.12
2022-12-27T04:45:42.291Z,81.23
2022-12-27T04:48:34.547Z,81.11
2022-12-27T04:51:24.385Z,81.05
2022-12-27T04:54:13.585Z,81.01
2022-12-27T04:56:45.411Z,80.81
2022-12-27T04:59:35.007Z,80.85
2022-12-27T05:02:06.695Z,80.83
2022-12-27T05:04:39.907Z,80.92
2022-12-27T05:07:28.676Z,80.98
2022-12-27T05:10:18.999Z,81.06
2022-12-27T05:13:08.467Z,81.00
2022-12-27T05:15:40.258Z,81.00
2022-12-27T05:18:11.984Z,81.05
2022-12-27T05:20:43.691Z,81.06
2022-12-27T05:23:33.312Z,81.06
2022-12-27T05:26:05.057Z,80.96
2022-12-27T05:28:36.795Z,80.97
2022-12-27T05:31:09.984Z,80.98
2022-12-27T05:33:41.743Z,80.98
2022-12-27T05:36:14.459Z,80.98
2022-12-27T05:38:46.722Z,80.82
2022-12-27T05:41:18.526Z,80.59
2022-12-27T05:43:50.842Z,80.44
2022-12-27T05:46:23.990Z,80.20
2022-12-27T05:48:55.776Z,80.00
2022-12-27T05:51:27.414Z,79.75
2022-12-27T05:53:59.146Z,79.80
2022-12-27T05:56:30.795Z,79.66
2022-12-27T05:59:02.435Z,79.28
2022-12-27T06:01:34.405Z,79.08
2022-12-27T06:04:06.348Z,79.16
2022-12-27T06:06:38.096Z,79.31
2022-12-27T06:09:09.703Z,79.23
2022-12-27T06:11:41.329Z,79.01
2022-12-27T06:14:12.931Z,78.85
2022-12-27T06:16:44.672Z,78.89
2022-12-27T06:19:16.952Z,78.95
2022-12-27T06:21:48.578Z,78.83
2022-12-27T06:24:20.169Z,78.76
2022-12-27T06:26:51.782Z,78.72
2022-12-27T06:29:23.611Z,78.93
2022-12-27T06:31:55.544Z,78.67
2022-12-27T06:34:27.312Z,78.65
2022-12-27T06:36:59.125Z,78.58
2022-12-27T06:39:31.104Z,78.80
2022-12-27T06:42:02.757Z,78.78
2022-12-27T06:44:34.467Z,78.55
2022-12-27T06:47:06.215Z,78.69
2022-12-27T06:49:37.901Z,78.62
2022-12-27T06:52:09.543Z,78.65
2022-12-27T06:54:41.699Z,78.68
2022-12-27T06:57:13.307Z,78.65
2022-12-27T06:59:48.141Z,78.50
2022-12-27T07:02:24.272Z,78.41
2022-12-27T07:04:55.960Z,78.34
2022-12-27T07:07:27.629Z,78.41
2022-12-27T07:09:59.245Z,78.48
2022-12-27T07:12:36.423Z,78.49
2022-12-27T07:15:10.416Z,78.46
2022-12-27T07:17:42.095Z,78.54
2022-12-27T07:20:14.931Z,78.74
2022-12-27T07:22:46.578Z,78.68
2022-12-27T07:25:18.541Z,78.77
2022-12-27T07:27:50.222Z,78.86
2022-12-27T07:30:21.875Z,78.78
2022-12-27T07:32:53.512Z,78.71
2022-12-27T07:35:25.145Z,78.84
2022-12-27T07:37:56.733Z,78.76
2022-12-27T07:40:28.407Z,78.69
2022-12-27T07:43:00.123Z,78.60
2022-12-27T07:45:32.016Z,78.42
2022-12-27T07:48:03.799Z,78.35
2022-12-27T07:50:35.422Z,78.17
2022-12-27T07:53:07.115Z,78.10
2022-12-27T07:55:38.776Z,78.29
2022-12-27T07:58:10.554Z,78.44
2022-12-27T08:00:42.548Z,78.26
2022-12-27T08:03:14.240Z,78.17
2022-12-27T08:05:49.772Z,78.22
2022-12-27T08:08:26.295Z,78.01
2022-12-27T08:11:02.156Z,78.05
2022-12-27T08:13:37.488Z,77.81
2022-12-27T08:16:15.654Z,77.94
2022-12-27T08:18:47.925Z,77.97
2022-12-27T08:21:20.073Z,77.93
2022-12-27T08:23:52.007Z,77.87
2022-12-27T08:26:24.352Z,77.75
2022-12-27T08:28:56.000Z,77.83
2022-12-27T08:31:27.789Z,77.93
2022-12-27T08:33:59.618Z,77.60
2022-12-27T08:39:23.229Z,77.46
2022-12-27T08:41:56.108Z,77.23
2022-12-27T08:44:28.206Z,77.18
2022-12-27T08:47:00.488Z,76.92
2022-12-27T08:49:32.287Z,76.82
2022-12-27T08:52:03.999Z,76.89
2022-12-27T08:54:36.223Z,76.95
2022-12-27T08:57:08.434Z,76.61
2022-12-27T08:59:40.006Z,76.63
2022-12-27T09:02:14.493Z,76.64
2022-12-27T09:04:46.212Z,76.30
2022-12-27T09:07:17.835Z,76.24
2022-12-27T09:09:49.707Z,76.32
2022-12-27T09:12:21.415Z,76.18
2022-12-27T09:14:53.058Z,76.02
2022-12-27T09:17:24.681Z,76.09
2022-12-27T09:19:56.311Z,76.00
2022-12-27T09:22:28.886Z,75.82
2022-12-27T09:25:00.577Z,75.55
2022-12-27T09:27:32.526Z,75.26
2022-12-27T09:30:04.976Z,75.24
2022-12-27T09:32:36.941Z,74.47
2022-12-27T09:35:10.147Z,74.67
2022-12-27T09:37:41.748Z,74.52
2022-12-27T09:40:17.757Z,74.74
2022-12-27T09:43:09.410Z,74.15
2022-12-27T09:45:52.648Z,74.00
2022-12-27T09:48:33.423Z,73.81
2022-12-27T09:51:09.679Z,73.70
2022-12-27T09:53:47.612Z,73.28
2022-12-27T09:56:24.364Z,73.01
2022-12-27T09:58:59.691Z,72.87
2022-12-27T10:01:35.453Z,72.96
2022-12-27T10:04:12.838Z,72.65
2022-12-27T10:07:07.051Z,72.96
2022-12-27T10:09:43.651Z,72.47
2022-12-27T10:12:29.909Z,71.74
2022-12-27T10:15:19.996Z,71.95
2022-12-27T10:18:04.067Z,71.99
2022-12-27T10:20:49.078Z,72.43
2022-12-27T10:23:24.270Z,72.13
2022-12-27T10:26:01.055Z,71.99
2022-12-27T10:28:40.078Z,72.04
2022-12-27T10:31:18.590Z,71.81
2022-12-27T10:33:52.211Z,71.86
2022-12-27T10:36:24.767Z,72.12
2022-12-27T10:38:56.895Z,71.82
2022-12-27T10:41:37.288Z,71.93
2022-12-27T10:44:13.282Z,71.67
2022-12-27T10:46:51.219Z,71.39
2022-12-27T10:49:31.382Z,70.98
2022-12-27T10:52:11.685Z,70.47
2022-12-27T10:54:54.333Z,69.62
2022-12-27T10:57:32.301Z,69.40
2022-12-27T11:00:19.203Z,69.29
2022-12-27T11:02:55.347Z,68.64
2022-12-27T11:05:29.365Z,68.16
2022-12-27T11:08:01.631Z,68.12
2022-12-27T11:10:33.456Z,67.27
2022-12-27T11:13:06.812Z,67.59
2022-12-27T11:15:41.796Z,67.43
2022-12-27T11:18:18.714Z,67.16
2022-12-27T11:20:52.962Z,66.73
2022-12-27T11:23:32.021Z,66.52
2022-12-27T11:26:06.567Z,66.52
2022-12-27T11:28:41.300Z,66.34
2022-12-27T11:31:16.598Z,65.97
2022-12-27T11:33:51.170Z,65.87
2022-12-27T11:36:29.868Z,65.27
2022-12-27T11:39:02.196Z,65.30
2022-12-27T11:41:42.179Z,65.34
2022-12-27T11:44:25.452Z,65.01
2022-12-27T11:47:02.859Z,64.35
2022-12-27T11:49:37.802Z,64.49
2022-12-27T11:52:48.208Z,64.88
2022-12-27T11:55:47.575Z,64.57
2022-12-27T11:58:45.651Z,64.48
2022-12-27T12:01:56.348Z,64.48
2022-12-27T12:04:47.931Z,64.40
2022-12-27T12:07:39.311Z,64.15
2022-12-27T12:10:22.292Z,64.07
2022-12-27T12:13:21.570Z,64.23
2022-12-27T12:16:11.201Z,64.38
2022-12-27T12:18:56.609Z,64.07
2022-12-27T12:21:31.768Z,63.71
2022-12-27T12:24:27.617Z,64.03
2022-12-27T12:27:15.653Z,63.66
2022-12-27T12:30:28.119Z,64.00
2022-12-27T12:33:30.494Z,64.12
2022-12-27T12:36:20.079Z,64.34
2022-12-27T12:38:58.966Z,64.06
2022-12-27T12:41:52.071Z,63.28
2022-12-27T12:44:44.205Z,63.36
2022-12-27T12:47:42.438Z,63.82
2022-12-27T12:50:29.799Z,63.79
2022-12-27T12:53:17.032Z,63.61
2022-12-27T12:56:02.210Z,63.67
2022-12-27T12:58:53.775Z,63.65
2022-12-27T13:01:48.647Z,63.88
2022-12-27T13:04:38.662Z,63.98
2022-12-27T13:07:25.088Z,63.96
2022-12-27T13:10:25.792Z,63.71
2022-12-27T13:13:06.598Z,64.00
2022-12-27T13:15:53.119Z,64.22
2022-12-27T13:18:34.801Z,64.24
2022-12-27T13:21:25.168Z,64.03
2022-12-27T13:24:08.542Z,63.72
2022-12-27T13:26:49.817Z,64.11
2022-12-27T13:29:38.381Z,64.09
2022-12-27T13:32:19.132Z,64.11
2022-12-27T13:35:03.463Z,63.90
2022-12-27T13:37:53.912Z,64.23
2022-12-27T13:40:39.540Z,64.25
2022-12-27T13:43:35.843Z,64.32
2022-12-27T13:46:33.164Z,64.22
2022-12-27T13:49:31.531Z,64.31
2022-12-27T13:52:18.084Z,64.07
2022-12-27T13:55:17.146Z,64.02
2022-12-27T13:58:18.546Z,63.98
2022-12-27T14:00:59.736Z,64.18
2022-12-27T14:03:56.284Z,64.22
2022-12-27T14:06:44.405Z,64.33
2022-12-27T14:09:41.557Z,64.15
2022-12-27T14:12:37.992Z,63.97
2022-12-27T14:15:15.124Z,64.04
2022-12-27T14:17:57.829Z,64.19
2022-12-27T14:20:44.747Z,64.26
2022-12-27T14:23:34.436Z,64.40
2022-12-27T14:26:45.136Z,64.51
2022-12-27T14:29:36.544Z,64.65
2022-12-27T14:32:37.460Z,64.03
2022-12-27T14:35:52.987Z,63.93
2022-12-27T14:38:50.919Z,63.98
2022-12-27T14:42:01.107Z,64.06
2022-12-27T14:45:09.257Z,63.97
2022-12-27T14:48:03.048Z,64.16
2022-12-27T14:51:20.031Z,64.17
2022-12-27T14:54:35.260Z,64.17
2022-12-27T14:57:19.300Z,64.38
2022-12-27T14:59:59.188Z,64.55
2022-12-27T15:02:43.385Z,64.49
2022-12-27T15:05:28.748Z,64.59
2022-12-27T15:08:20.159Z,64.61
2022-12-27T15:11:08.268Z,64.37
2022-12-27T15:13:57.226Z,64.60
2022-12-27T15:16:39.389Z,64.50
2022-12-27T15:19:32.268Z,64.59
2022-12-27T15:22:13.975Z,64.74
2022-12-27T15:24:54.872Z,64.74
2022-12-27T15:27:34.281Z,64.85
2022-12-27T15:30:19.414Z,64.87
2022-12-27T15:33:00.973Z,65.06
2022-12-27T15:35:45.778Z,65.10
2022-12-27T15:38:20.759Z,64.95
2022-12-27T15:41:05.507Z,65.10
2022-12-27T15:43:57.754Z,65.17
2022-12-27T15:46:51.075Z,65.24
2022-12-27T15:49:50.589Z,65.21
2022-12-27T15:52:36.233Z,65.32
2022-12-27T15:55:32.110Z,65.32
2022-12-27T15:58:15.979Z,65.35
2022-12-27T16:01:08.721Z,65.31
2022-12-27T16:03:42.663Z,65.39
2022-12-27T16:06:51.777Z,65.23
2022-12-27T16:09:38.497Z,65.28
2022-12-27T16:12:31.931Z,65.40
2022-12-27T16:15:34.110Z,65.27
2022-12-27T16:18:27.581Z,65.11
2022-12-27T16:21:02.083Z,65.34
2022-12-27T16:23:36.119Z,65.40
2022-12-27T16:26:11.099Z,65.21
2022-12-27T16:28:44.508Z,65.13
2022-12-27T16:31:20.959Z,65.07
2022-12-27T16:33:53.878Z,65.08
2022-12-27T16:36:37.803Z,64.99
2022-12-27T16:39:45.669Z,64.87
2022-12-27T16:42:22.172Z,65.07
2022-12-27T16:45:05.488Z,65.32
2022-12-27T16:48:07.431Z,65.22
2022-12-27T16:51:11.187Z,65.23
2022-12-27T16:54:03.928Z,65.31
2022-12-27T16:56:37.571Z,65.35
2022-12-27T16:59:29.651Z,65.33
2022-12-27T17:02:01.807Z,65.41
2022-12-27T17:05:00.336Z,65.53
2022-12-27T17:07:49.780Z,65.40
2022-12-27T17:10:44.633Z,65.83
2022-12-27T17:13:20.795Z,65.63
2022-12-27T17:15:59.675Z,65.75
2022-12-27T17:18:35.306Z,65.68
2022-12-27T17:21:10.368Z,65.73
2022-12-27T17:23:44.426Z,65.89
2022-12-27T17:26:42.970Z,65.89
2022-12-27T17:29:43.265Z,65.82
2022-12-27T17:32:27.903Z,65.80
2022-12-27T17:35:11.169Z,65.74
2022-12-27T17:37:58.495Z,65.82
2022-12-27T17:40:37.843Z,66.01
2022-12-27T17:43:39.606Z,66.00
2022-12-27T17:46:25.784Z,66.10
2022-12-27T17:48:59.226Z,65.73
2022-12-27T17:51:33.494Z,65.66
2022-12-27T17:54:42.272Z,65.70
2022-12-27T17:57:34.223Z,65.74
2022-12-27T18:00:07.740Z,65.84
2022-12-27T18:02:41.567Z,65.76
2022-12-27T18:05:17.618Z,65.75
2022-12-27T18:07:49.488Z,66.00
2022-12-27T18:10:25.160Z,66.01
2022-12-27T18:13:00.389Z,65.82
2022-12-27T18:15:34.822Z,65.84
2022-12-27T18:18:08.699Z,65.81
2022-12-27T18:20:42.887Z,66.02
2022-12-27T18:23:19.858Z,66.00
2022-12-27T18:26:13.433Z,66.18
2022-12-27T18:28:47.770Z,65.96
2022-12-27T18:31:26.815Z,66.09
2022-12-27T18:34:03.497Z,66.35
2022-12-27T18:36:39.344Z,66.39
2022-12-27T18:39:26.672Z,66.37
2022-12-27T18:41:59.091Z,66.29
2022-12-27T18:44:33.903Z,66.51
2022-12-27T18:47:06.294Z,66.43
2022-12-27T18:49:39.514Z,66.32
2022-12-27T18:52:16.852Z,66.35
2022-12-27T18:54:48.747Z,66.50
2022-12-27T18:57:35.376Z,66.39
2022-12-27T19:00:21.585Z,66.57
2022-12-27T19:02:54.942Z,66.63
2022-12-27T19:05:30.507Z,66.52
2022-12-27T19:08:11.662Z,66.65
2022-12-27T19:10:49.859Z,66.71
2022-12-27T19:13:27.390Z,66.77
2022-12-27T19:16:00.198Z,67.14
2022-12-27T19:18:36.124Z,67.30
2022-12-27T19:21:09.134Z,67.23
2022-12-27T19:23:43.230Z,67.36
2022-12-27T19:26:31.762Z,67.50
2022-12-27T19:29:08.907Z,67.66
2022-12-27T19:31:44.585Z,67.58
2022-12-27T19:34:21.004Z,67.65
2022-12-27T19:36:54.968Z,67.78
2022-12-27T19:39:30.456Z,67.93
2022-12-27T19:42:06.704Z,67.80
2022-12-27T19:44:39.749Z,68.00
2022-12-27T19:47:14.603Z,67.86
2022-12-27T19:49:46.279Z,67.98
2022-12-27T19:52:22.719Z,68.18
2022-12-27T19:54:59.249Z,68.28
2022-12-27T19:57:30.966Z,68.29
2022-12-27T20:00:12.047Z,68.25
2022-12-27T20:02:44.747Z,68.64
2022-12-27T20:05:16.728Z,68.63
2022-12-27T20:07:48.435Z,68.69
2022-12-27T20:10:20.459Z,68.62
2022-12-27T20:12:54.273Z,68.75
2022-12-27T20:15:27.130Z,69.03
2022-12-27T20:17:58.847Z,69.12
2022-12-27T20:20:30.555Z,69.14
2022-12-27T20:23:02.311Z,69.14
2022-12-27T20:25:36.634Z,69.12
2022-12-27T20:28:08.621Z,69.15
2022-12-27T20:30:42.531Z,69.34
2022-12-27T20:33:14.631Z,69.43
2022-12-27T20:35:46.517Z,69.42
2022-12-27T20:38:20.442Z,69.56
2022-12-27T20:40:52.135Z,69.73
2022-12-27T20:43:23.812Z,69.78
2022-12-27T20:45:55.644Z,69.65
2022-12-27T20:48:27.473Z,69.85
2022-12-27T20:50:59.340Z,70.09
2022-12-27T20:53:31.321Z,70.17
2022-12-27T20:56:04.967Z,70.24
2022-12-27T20:58:36.770Z,70.11
2022-12-27T21:01:13.805Z,70.02
2022-12-27T21:03:46.510Z,70.36
2022-12-27T21:06:20.635Z,70.47
2022-12-27T21:08:57.153Z,70.28
2022-12-27T21:11:31.743Z,70.43
2022-12-27T21:14:05.360Z,70.30
2022-12-27T21:16:36.292Z,70.25
2022-12-27T21:19:08.474Z,70.58
2022-12-27T21:21:42.526Z,70.37
2022-12-27T21:24:14.813Z,70.56
2022-12-27T21:26:47.433Z,70.63
2022-12-27T21:29:20.967Z,70.62
2022-12-27T21:31:53.441Z,70.79
2022-12-27T21:34:25.138Z,70.65
2022-12-27T21:36:56.948Z,70.71
2022-12-27T21:39:28.570Z,70.68
2022-12-27T21:42:00.246Z,71.05
2022-12-27T21:44:35.246Z,70.93
2022-12-27T21:47:07.185Z,70.93
2022-12-27T21:49:40.489Z,71.01
2022-12-27T21:52:12.192Z,70.97
2022-12-27T21:54:44.015Z,71.01
2022-12-27T21:57:15.803Z,71.20
2022-12-27T21:59:47.497Z,71.27
2022-12-27T22:02:19.317Z,70.93
2022-12-27T22:04:51.981Z,71.09
2022-12-27T22:07:23.755Z,70.94
2022-12-27T22:09:55.435Z,71.02
2022-12-27T22:12:27.083Z,70.97
2022-12-27T22:14:58.690Z,71.06
2022-12-27T22:17:30.382Z,70.97
2022-12-27T22:20:02.335Z,71.07
2022-12-27T22:22:33.973Z,71.19
2022-12-27T22:25:06.286Z,70.99
2022-12-27T22:27:37.907Z,71.00
2022-12-27T22:30:11.449Z,70.93
2022-12-27T22:32:41.490Z,70.92
2022-12-27T22:35:13.535Z,71.07
2022-12-27T22:37:45.361Z,71.11
2022-12-27T22:40:30.871Z,71.18
2022-12-27T22:43:07.147Z,71.02
2022-12-27T22:45:48.887Z,71.30
2022-12-27T22:48:23.638Z,71.27
2022-12-27T22:50:55.371Z,71.06
2022-12-27T22:53:26.970Z,71.04
2022-12-27T22:55:58.588Z,71.05
2022-12-27T22:58:33.218Z,71.23
2022-12-27T23:01:11.022Z,71.26
2022-12-27T23:03:43.404Z,71.12
2022-12-27T23:06:15.789Z,71.19
2022-12-27T23:08:47.617Z,71.24
2022-12-27T23:11:21.525Z,71.28
2022-12-27T23:13:57.914Z,71.11
2022-12-27T23:16:36.130Z,71.16
2022-12-27T23:19:08.750Z,71.25
2022-12-27T23:21:40.607Z,71.31
2022-12-27T23:24:13.516Z,71.35
2022-12-27T23:26:45.189Z,71.33
2022-12-27T23:29:17.387Z,71.25
2022-12-27T23:31:54.849Z,71.28
2022-12-27T23:34:29.378Z,71.38
2022-12-27T23:37:02.386Z,71.36
2022-12-27T23:39:34.121Z,71.34
2022-12-27T23:42:06.342Z,71.50
2022-12-27T23:44:37.927Z,71.49
2022-12-27T23:47:09.641Z,71.50
2022-12-27T23:49:41.410Z,71.62
2022-12-27T23:52:13.222Z,71.61
2022-12-27T23:54:44.854Z,71.75
2022-12-27T23:57:20.559Z,71.90
2022-12-27T23:59:55.455Z,71.99
